Terminal Aerodrome Forecast
Issued by NWS

Home | Current Version | Previous Version | Text Only | Print | Product List | Glossary On
Versions: 1 2 3 4 5 6 7 8 9 10 11 12 13 14 15
000
FTUS44 KBMX 241732
TAFTOI
TAF
KTOI 241732Z 2418/2518 13009G16KT P6SM SCT035 OVC045
      TEMPO 2420/2424 -SHRA
     FM250000 12005KT P6SM BKN060
     FM250900 12007KT P6SM OVC015=

USA.gov is the U.S. government's official web portal to all federal, state and local government web resources and services.